Fort Bridger, Fort Bridger Airport (KFBR)

NameFort Bridger Airport
CityFort Bridger
CountryUnited States
ICAOKFBR
IATAFBR
Altitude2144 m
CoordinatesGoogle Map
Live Air TrafficLiveATC.net
METARKFBR 182355Z AUTO 25006KT 10SM SCT080 11/M02 A3027 RMK AO2 T01061017 10142 20104
2018-10-18 23:55:00 Wind: West-Southwest (250°) 3.09 m/s - Visibility: 16093.4 m - Temperature: 11 °C - Dew point: -2 °C - Humidity: 40.6% - Pressure: 1025.06 hPa

Sorry, no flights used the airport in this database.